Terminal Aerodrome Forecast
Issued by NWS Twin Cities, MN

Home | Current Version | Previous Version | Text Only | Print | Product List | Glossary Off
Versions: 1 2 3 4 5 6 7 8 9 10 11 12 13 14 15

478
FTUS43 KMPX 182330
TAFSTC
TAF
KSTC 182330Z 1900/1924 31013G19KT P6SM SKC
     FM190200 31010G17KT P6SM SKC
     FM191000 29006KT P6SM FEW250
     FM191400 25006KT P6SM SCT250
     FM191800 21009KT P6SM BKN250=

USA.gov is the U.S. government's official web portal to all federal, state and local government web resources and services.